Time;durP1;ratioP1;P1;durP2;ratioP2;P2;SDS_P1;SDS_P2;PMS_P1;PMS_P2;Temp;Humidity;BMP_temperature;BMP_pressure;BME280_temperature;BME280_humidity;BME280_pressure;Samples;Min_cycle;Max_cycle;Signal;HPM_P1;HPM_P2
2023/04/20 00:00:30;;;;;;;6.93;5.00;;;13.70;97.90;;;;;;6155619;23;20005;-72
2023/04/20 00:02:56;;;;;;;7.80;4.60;;;13.70;98.00;;;;;;6156062;23;20001;-72
2023/04/20 00:05:22;;;;;;;9.93;4.72;;;13.70;98.00;;;;;;6155962;23;20001;-72
2023/04/20 00:07:48;;;;;;;5.60;4.80;;;13.80;98.10;;;;;;6129495;23;20010;-72
2023/04/20 00:10:14;;;;;;;7.15;4.82;;;13.80;98.10;;;;;;6155773;23;20013;-72
2023/04/20 00:12:41;;;;;;;9.43;4.53;;;13.70;98.20;;;;;;6155899;23;20002;-72
2023/04/20 00:15:07;;;;;;;9.50;4.60;;;13.70;98.30;;;;;;6155757;23;20013;-71
2023/04/20 00:17:33;;;;;;;5.97;4.93;;;13.70;98.30;;;;;;6155958;23;20013;-72
2023/04/20 00:19:58;;;;;;;7.13;5.07;;;13.70;98.40;;;;;;6155705;23;20001;-72
2023/04/20 00:22:25;;;;;;;7.82;5.07;;;13.80;98.40;;;;;;6155444;23;20021;-72
2023/04/20 00:24:50;;;;;;;6.80;4.72;;;13.80;98.40;;;;;;6155578;23;20006;-72
2023/04/20 00:27:16;;;;;;;9.30;4.65;;;13.70;98.30;;;;;;6155729;23;20028;-72
2023/04/20 00:29:42;;;;;;;5.30;4.53;;;13.70;98.30;;;;;;6155647;23;20384;-72
2023/04/20 00:32:08;;;;;;;8.48;5.00;;;13.70;98.30;;;;;;6155226;23;20040;-72
2023/04/20 00:34:34;;;;;;;10.40;5.22;;;13.70;98.30;;;;;;6155375;23;19993;-72
2023/04/20 00:37:00;;;;;;;7.03;5.05;;;13.60;98.20;;;;;;6155311;23;19997;-72
2023/04/20 00:39:26;;;;;;;8.70;5.22;;;13.60;98.00;;;;;;6155570;23;20068;-72
2023/04/20 00:41:51;;;;;;;8.07;5.00;;;13.70;98.00;;;;;;6155783;23;20005;-72
2023/04/20 00:44:17;;;;;;;7.15;5.60;;;13.60;97.90;;;;;;6155440;23;20008;-72
2023/04/20 00:46:43;;;;;;;7.40;5.30;;;13.60;97.80;;;;;;6155364;23;20025;-72
2023/04/20 00:49:10;;;;;;;7.50;5.72;;;13.60;97.50;;;;;;6155461;23;20005;-72
2023/04/20 00:51:36;;;;;;;9.27;5.65;;;13.70;97.40;;;;;;6155166;23;20463;-72
2023/04/20 00:54:02;;;;;;;8.82;5.90;;;13.60;97.20;;;;;;6155577;23;19998;-72
2023/04/20 00:56:27;;;;;;;11.93;6.13;;;13.60;97.00;;;;;;6155178;23;20001;-72
2023/04/20 00:58:54;;;;;;;8.95;5.72;;;13.60;96.90;;;;;;6152813;23;20013;-72
2023/04/20 01:01:19;;;;;;;9.88;5.63;;;13.60;96.80;;;;;;6152175;23;20009;-72
2023/04/20 01:03:45;;;;;;;10.52;6.13;;;13.60;96.70;;;;;;6152097;23;20009;-72
2023/04/20 01:06:13;;;;;;;7.40;5.47;;;13.60;96.60;;;;;;6154714;23;20401;-72
2023/04/20 01:08:49;;;;;;;7.97;5.45;;;13.60;96.40;;;;;;6155188;23;20002;-72
2023/04/20 01:11:15;;;;;;;6.97;5.75;;;13.60;96.30;;;;;;6154985;23;20013;-72
2023/04/20 01:13:41;;;;;;;7.15;5.60;;;13.60;96.00;;;;;;6155186;23;20001;-72
2023/04/20 01:16:07;;;;;;;6.95;5.65;;;13.60;96.00;;;;;;6155197;23;20002;-72
2023/04/20 01:18:49;;;;;;;8.93;5.85;;;13.50;96.10;;;;;;6155294;23;20033;-72
2023/04/20 01:21:17;;;;;;;8.32;5.88;;;13.50;96.00;;;;;;6154836;23;20012;-73
2023/04/20 01:23:44;;;;;;;12.77;5.90;;;13.50;96.00;;;;;;6155099;23;20006;-72
2023/04/20 01:26:13;;;;;;;6.18;5.18;;;13.50;96.00;;;;;;6155014;23;20010;-72
2023/04/20 01:28:39;;;;;;;10.65;5.75;;;13.50;95.80;;;;;;6154609;23;20002;-72
2023/04/20 01:31:06;;;;;;;11.35;5.80;;;13.40;95.80;;;;;;6154863;23;20013;-72
2023/04/20 01:33:33;;;;;;;10.63;5.43;;;13.50;95.90;;;;;;6155200;23;19997;-72
2023/04/20 01:35:58;;;;;;;7.93;5.93;;;13.50;96.00;;;;;;6156759;23;20012;-72
2023/04/20 01:38:25;;;;;;;10.38;5.70;;;13.50;96.00;;;;;;6157257;23;20551;-72
2023/04/20 01:40:52;;;;;;;9.75;6.35;;;13.50;96.10;;;;;;6157123;23;20012;-72
2023/04/20 01:43:18;;;;;;;7.35;5.50;;;13.40;96.20;;;;;;6156815;23;19997;-72
2023/04/20 01:45:44;;;;;;;6.93;5.43;;;13.40;96.30;;;;;;6156918;23;20001;-72
2023/04/20 01:48:10;;;;;;;8.05;5.55;;;13.40;96.20;;;;;;6157044;23;20096;-72
2023/04/20 01:50:36;;;;;;;7.72;5.90;;;13.50;96.20;;;;;;6156728;23;20021;-72
2023/04/20 01:53:02;;;;;;;8.13;6.40;;;13.40;96.20;;;;;;6157086;23;20076;-72
2023/04/20 01:55:27;;;;;;;8.15;5.28;;;13.40;96.10;;;;;;6156942;23;20008;-72
2023/04/20 01:57:53;;;;;;;6.70;5.32;;;13.40;96.00;;;;;;6156934;23;20053;-72
2023/04/20 02:00:19;;;;;;;8.25;5.68;;;13.40;95.70;;;;;;6156807;23;20002;-72
2023/04/20 02:02:44;;;;;;;11.27;5.32;;;13.40;95.50;;;;;;6156849;23;20076;-72
2023/04/20 02:05:10;;;;;;;10.38;6.07;;;13.40;95.30;;;;;;6157004;23;20080;-72
2023/04/20 02:07:36;;;;;;;11.70;5.97;;;13.40;95.20;;;;;;6156704;23;20032;-72
2023/04/20 02:10:03;;;;;;;7.38;5.65;;;13.40;95.20;;;;;;6130960;23;20033;-72
2023/04/20 02:12:29;;;;;;;10.00;6.05;;;13.50;95.30;;;;;;6156848;23;20013;-72
2023/04/20 02:14:55;;;;;;;9.20;5.43;;;13.50;95.20;;;;;;6130763;23;20384;-72
2023/04/20 02:17:21;;;;;;;6.57;5.18;;;13.40;95.00;;;;;;6157036;23;20013;-72
2023/04/20 02:19:46;;;;;;;6.68;5.63;;;13.50;94.80;;;;;;6156961;23;20002;-72
2023/04/20 02:22:12;;;;;;;9.38;5.45;;;13.50;94.60;;;;;;6156991;23;20319;-72
2023/04/20 02:24:38;;;;;;;7.35;5.72;;;13.50;94.30;;;;;;6156531;23;20012;-72
2023/04/20 02:27:04;;;;;;;8.38;5.78;;;13.50;94.20;;;;;;6156441;23;19997;-72
2023/04/20 02:29:30;;;;;;;5.90;5.30;;;13.50;94.10;;;;;;6156448;23;20332;-72
2023/04/20 02:31:56;;;;;;;6.32;5.35;;;13.50;93.70;;;;;;6156494;23;20088;-72
2023/04/20 02:34:22;;;;;;;8.20;5.13;;;13.50;93.70;;;;;;6156744;23;20002;-71
2023/04/20 02:36:48;;;;;;;7.15;4.80;;;13.50;93.60;;;;;;6156810;23;20002;-72
2023/04/20 02:39:14;;;;;;;6.80;5.38;;;13.50;93.60;;;;;;6156874;23;20361;-72
2023/04/20 02:41:40;;;;;;;7.05;4.75;;;13.50;93.40;;;;;;6130644;23;20432;-72
2023/04/20 02:44:06;;;;;;;10.88;4.88;;;13.50;93.40;;;;;;6156930;23;20012;-72
2023/04/20 02:46:31;;;;;;;6.68;5.30;;;13.50;93.30;;;;;;6156460;23;20072;-72
2023/04/20 02:48:57;;;;;;;8.10;5.82;;;13.60;93.30;;;;;;6156482;23;20409;-72
2023/04/20 02:51:23;;;;;;;5.20;4.70;;;13.50;93.20;;;;;;6155917;23;20115;-72
2023/04/20 02:53:49;;;;;;;5.35;4.72;;;13.50;93.10;;;;;;6156176;23;20002;-72
2023/04/20 02:56:15;;;;;;;6.70;4.85;;;13.50;93.00;;;;;;6156388;23;20440;-72
2023/04/20 02:58:40;;;;;;;8.27;5.68;;;13.60;93.10;;;;;;6156259;23;20077;-72
2023/04/20 03:01:06;;;;;;;6.88;5.47;;;13.60;93.00;;;;;;6156415;23;20081;-72
2023/04/20 03:03:32;;;;;;;6.68;5.07;;;13.60;92.90;;;;;;6155061;23;20069;-72
2023/04/20 03:05:58;;;;;;;6.15;4.57;;;13.60;92.90;;;;;;6156312;23;20012;-72
2023/04/20 03:08:24;;;;;;;5.70;4.90;;;13.50;92.80;;;;;;6156421;23;20333;-72
2023/04/20 03:10:49;;;;;;;9.80;4.78;;;13.50;92.70;;;;;;6156483;23;20009;-72
2023/04/20 03:13:15;;;;;;;8.98;4.68;;;13.60;92.40;;;;;;6156422;23;20006;-72
2023/04/20 03:15:42;;;;;;;8.45;4.93;;;13.50;92.40;;;;;;6156273;23;20148;-72
2023/04/20 03:18:08;;;;;;;8.02;4.35;;;13.50;92.50;;;;;;6156182;23;20039;-72
2023/04/20 03:20:34;;;;;;;5.60;4.63;;;13.50;92.50;;;;;;6156240;23;19997;-72
2023/04/20 03:23:00;;;;;;;7.70;5.00;;;13.50;92.30;;;;;;6156559;23;20383;-71
2023/04/20 03:25:26;;;;;;;6.63;5.07;;;13.60;92.40;;;;;;6156331;23;20044;-72
2023/04/20 03:27:52;;;;;;;6.78;5.10;;;13.60;92.50;;;;;;6156438;23;20002;-72
2023/04/20 03:30:18;;;;;;;7.22;4.88;;;13.50;92.60;;;;;;6155999;23;20008;-71
2023/04/20 03:32:44;;;;;;;7.75;4.80;;;13.50;92.70;;;;;;6156446;23;20318;-71
2023/04/20 03:35:10;;;;;;;7.65;4.90;;;13.50;92.60;;;;;;6156561;23;20080;-72
2023/04/20 03:37:38;;;;;;;10.07;5.18;;;13.50;92.60;;;;;;6156404;23;20388;-72
2023/04/20 03:40:07;;;;;;;6.60;4.90;;;13.50;92.60;;;;;;6156120;23;20002;-71
2023/04/20 03:42:32;;;;;;;7.43;4.68;;;13.50;92.70;;;;;;6154633;23;20002;-72
2023/04/20 03:44:58;;;;;;;5.15;4.45;;;13.40;92.70;;;;;;6156275;23;20005;-72
2023/04/20 03:47:24;;;;;;;7.68;4.65;;;13.40;92.70;;;;;;6156276;23;20025;-72
2023/04/20 03:49:49;;;;;;;7.22;4.95;;;13.40;92.60;;;;;;6155631;23;20005;-72
2023/04/20 03:52:15;;;;;;;5.07;4.30;;;13.40;92.30;;;;;;6156013;23;20502;-71
2023/04/20 03:54:41;;;;;;;7.07;4.80;;;13.40;92.40;;;;;;6156086;23;20001;-72
2023/04/20 03:57:07;;;;;;;6.95;4.47;;;13.30;92.40;;;;;;6155936;23;20002;-72
2023/04/20 03:59:32;;;;;;;6.28;4.65;;;13.40;92.40;;;;;;6129593;23;20085;-72
2023/04/20 04:01:59;;;;;;;6.38;4.68;;;13.30;92.50;;;;;;6155801;23;20010;-72
2023/04/20 04:04:25;;;;;;;8.77;4.95;;;13.30;92.50;;;;;;6155948;23;20013;-72
2023/04/20 04:06:50;;;;;;;7.32;4.60;;;13.30;92.60;;;;;;6156002;23;20005;-71
2023/04/20 04:09:16;;;;;;;7.53;4.35;;;13.30;92.60;;;;;;6156047;23;20056;-71
2023/04/20 04:11:42;;;;;;;6.32;4.75;;;13.30;92.60;;;;;;6155788;23;20013;-71
2023/04/20 04:14:08;;;;;;;6.88;5.10;;;13.30;92.80;;;;;;6155736;23;20040;-72
2023/04/20 04:16:33;;;;;;;10.25;4.80;;;13.20;92.80;;;;;;6129506;23;20010;-71
2023/04/20 04:18:59;;;;;;;7.38;4.90;;;13.20;92.90;;;;;;6129519;23;20010;-72
2023/04/20 04:21:26;;;;;;;10.90;5.00;;;13.20;92.90;;;;;;6129559;23;20324;-72
2023/04/20 04:23:52;;;;;;;8.77;4.90;;;13.20;93.00;;;;;;6155753;23;20001;-72
2023/04/20 04:26:20;;;;;;;6.60;4.85;;;13.20;93.10;;;;;;6155539;23;20297;-72
2023/04/20 04:28:46;;;;;;;5.95;4.32;;;13.20;93.00;;;;;;6155702;23;20064;-72
2023/04/20 04:31:11;;;;;;;7.75;4.50;;;13.20;93.00;;;;;;6155761;23;20001;-72
2023/04/20 04:33:37;;;;;;;6.97;5.03;;;13.10;93.00;;;;;;6155793;23;20033;-72
2023/04/20 04:36:04;;;;;;;5.18;4.50;;;13.10;92.90;;;;;;6155408;23;20101;-72
2023/04/20 04:38:32;;;;;;;7.20;4.57;;;13.10;92.90;;;;;;6155442;23;20001;-72
2023/04/20 04:40:57;;;;;;;6.20;4.72;;;13.10;93.20;;;;;;6155805;23;20080;-72
2023/04/20 04:43:24;;;;;;;9.93;4.65;;;13.10;93.10;;;;;;6155499;23;20095;-72
2023/04/20 04:45:50;;;;;;;5.78;4.32;;;13.10;93.00;;;;;;6155410;23;20005;-72
2023/04/20 04:48:15;;;;;;;6.88;4.50;;;13.10;92.80;;;;;;6155233;23;19998;-72
2023/04/20 04:50:41;;;;;;;8.07;4.65;;;13.10;92.80;;;;;;6155075;23;20013;-72
2023/04/20 04:53:07;;;;;;;8.32;4.25;;;13.20;92.80;;;;;;6128980;23;20013;-72
2023/04/20 04:55:33;;;;;;;6.10;4.70;;;13.20;92.80;;;;;;6155653;23;20010;-72
2023/04/20 04:57:58;;;;;;;6.72;4.68;;;13.20;92.90;;;;;;6155688;23;20002;-71
2023/04/20 05:00:25;;;;;;;6.47;5.40;;;13.20;92.80;;;;;;6155288;23;20080;-71
2023/04/20 05:02:53;;;;;;;5.90;4.88;;;13.20;92.70;;;;;;6155741;23;20001;-72
2023/04/20 05:05:19;;;;;;;5.97;4.22;;;13.20;92.70;;;;;;6155209;23;20005;-72
2023/04/20 05:07:45;;;;;;;5.90;5.30;;;13.20;92.70;;;;;;6155095;23;20005;-72
2023/04/20 05:10:11;;;;;;;4.75;3.97;;;13.20;92.70;;;;;;6154662;23;20052;-72
2023/04/20 05:12:37;;;;;;;6.38;4.05;;;13.20;92.60;;;;;;6155258;23;20028;-72
2023/04/20 05:15:04;;;;;;;4.55;4.10;;;13.20;92.20;;;;;;6155324;23;20012;-71
2023/04/20 05:17:30;;;;;;;7.13;3.60;;;13.30;92.20;;;;;;6155329;23;20005;-72
2023/04/20 05:19:56;;;;;;;8.35;3.83;;;13.30;92.20;;;;;;6155059;23;20012;-72
2023/04/20 05:22:21;;;;;;;6.88;4.03;;;13.30;92.10;;;;;;6154481;23;20053;-72
2023/04/20 05:24:47;;;;;;;5.47;3.60;;;13.30;92.10;;;;;;6155340;23;20002;-72
2023/04/20 05:27:13;;;;;;;8.10;4.00;;;13.30;92.00;;;;;;6129064;23;20009;-72
2023/04/20 05:29:39;;;;;;;4.35;3.17;;;13.30;92.10;;;;;;6155235;23;20072;-72
2023/04/20 05:32:04;;;;;;;4.13;3.50;;;13.40;92.00;;;;;;6154924;23;20010;-71
2023/04/20 05:34:30;;;;;;;3.72;3.20;;;13.40;91.80;;;;;;6154951;23;20005;-72
2023/04/20 05:36:58;;;;;;;4.65;3.47;;;13.40;91.80;;;;;;6155425;23;20328;-72
2023/04/20 05:39:24;;;;;;;7.05;3.47;;;13.40;91.70;;;;;;6155276;23;20338;-71
2023/04/20 05:41:50;;;;;;;4.50;3.47;;;13.40;91.70;;;;;;6154922;23;20380;-72
2023/04/20 05:44:15;;;;;;;4.43;3.40;;;13.50;91.90;;;;;;6155149;23;20001;-71
2023/04/20 05:46:41;;;;;;;4.45;3.50;;;13.50;92.10;;;;;;6155221;23;20001;-71
2023/04/20 05:49:07;;;;;;;7.03;3.92;;;13.60;92.10;;;;;;6154999;23;20438;-72
2023/04/20 05:51:33;;;;;;;6.95;3.47;;;13.50;92.10;;;;;;6154390;23;20020;-71
2023/04/20 05:54:00;;;;;;;5.78;3.55;;;13.60;92.00;;;;;;6154626;23;19998;-71
2023/04/20 05:56:26;;;;;;;6.18;3.67;;;13.60;91.80;;;;;;6154961;23;20012;-71
2023/04/20 05:58:53;;;;;;;7.18;3.65;;;13.70;91.80;;;;;;6154967;23;20068;-71
2023/04/20 06:01:18;;;;;;;4.38;3.08;;;13.70;91.70;;;;;;6154441;23;20312;-71
2023/04/20 06:03:44;;;;;;;4.75;3.25;;;13.70;91.70;;;;;;6128479;23;20006;-71
2023/04/20 06:06:10;;;;;;;8.90;3.30;;;13.70;91.60;;;;;;6154565;23;20002;-71
2023/04/20 06:08:36;;;;;;;4.95;3.92;;;13.70;91.30;;;;;;6154830;23;19998;-71
2023/04/20 06:11:01;;;;;;;4.40;3.00;;;13.70;91.20;;;;;;6155102;23;20061;-71
2023/04/20 06:13:27;;;;;;;5.00;3.35;;;13.70;91.40;;;;;;6154837;23;19998;-71
2023/04/20 06:15:53;;;;;;;4.43;3.28;;;13.70;91.40;;;;;;6154690;23;20012;-71
2023/04/20 06:18:19;;;;;;;8.25;3.70;;;13.70;91.60;;;;;;6154111;23;20429;-71
2023/04/20 06:20:45;;;;;;;6.55;3.90;;;13.80;91.90;;;;;;6155014;23;20001;-71
2023/04/20 06:23:11;;;;;;;6.03;3.95;;;13.70;92.00;;;;;;6156414;23;20001;-71
2023/04/20 06:25:37;;;;;;;6.65;3.33;;;13.70;92.10;;;;;;6156528;23;20064;-71
2023/04/20 06:28:05;;;;;;;12.20;3.47;;;13.70;92.00;;;;;;6155492;23;19997;-71
2023/04/20 06:30:32;;;;;;;5.22;3.25;;;13.70;91.80;;;;;;6154181;23;20083;-72
2023/04/20 06:32:59;;;;;;;4.68;3.38;;;13.70;91.70;;;;;;6155270;23;20012;-71
2023/04/20 06:35:25;;;;;;;5.82;3.53;;;13.80;91.70;;;;;;6155701;23;20002;-72
2023/04/20 06:37:51;;;;;;;7.03;3.25;;;13.70;91.80;;;;;;6155615;23;20436;-70
2023/04/20 06:40:18;;;;;;;8.00;3.85;;;13.70;92.00;;;;;;6155071;23;20001;-71
2023/04/20 06:42:44;;;;;;;9.20;3.85;;;13.70;92.20;;;;;;6155195;23;20088;-71
2023/04/20 06:45:10;;;;;;;5.47;3.88;;;13.70;92.50;;;;;;6155390;23;20077;-72
2023/04/20 06:47:36;;;;;;;6.57;3.63;;;13.70;92.70;;;;;;6155481;23;20006;-71
2023/04/20 06:50:08;;;;;;;4.10;3.63;;;13.70;93.00;;;;;;6155136;23;20270;-72
2023/04/20 06:52:37;;;;;;;4.65;3.72;;;13.70;93.40;;;;;;6155612;23;20018;-71
2023/04/20 06:55:03;;;;;;;6.03;3.88;;;13.60;93.40;;;;;;6155730;23;20005;-72
2023/04/20 06:57:29;;;;;;;5.90;3.80;;;13.50;93.10;;;;;;6154035;23;20010;-71
2023/04/20 06:59:55;;;;;;;7.07;4.07;;;13.50;93.30;;;;;;6129375;23;20010;-71
2023/04/20 07:02:20;;;;;;;5.07;4.57;;;13.50;93.70;;;;;;6155013;23;20005;-71
2023/04/20 07:04:46;;;;;;;7.45;4.65;;;13.40;93.90;;;;;;6155259;23;20367;-70
2023/04/20 07:07:12;;;;;;;5.78;4.43;;;13.40;94.20;;;;;;6155170;23;20016;-71
2023/04/20 07:09:37;;;;;;;6.40;4.63;;;13.30;94.70;;;;;;6155079;23;20017;-71
2023/04/20 07:12:03;;;;;;;6.13;4.50;;;13.30;94.80;;;;;;6129291;23;20060;-71
2023/04/20 07:14:29;;;;;;;8.73;5.25;;;13.30;95.30;;;;;;6155445;23;20051;-71
2023/04/20 07:16:55;;;;;;;5.13;4.28;;;13.30;95.10;;;;;;6155322;23;20006;-70
2023/04/20 07:19:20;;;;;;;5.53;4.40;;;13.20;95.40;;;;;;6155769;23;20005;-72
2023/04/20 07:21:46;;;;;;;5.47;4.30;;;13.20;95.50;;;;;;6155406;23;20006;-70
2023/04/20 07:24:12;;;;;;;5.97;4.75;;;13.20;95.50;;;;;;6155689;23;20010;-71
2023/04/20 07:26:38;;;;;;;9.85;4.35;;;13.20;95.40;;;;;;6155520;23;20121;-70
2023/04/20 07:29:04;;;;;;;5.45;4.35;;;13.10;95.40;;;;;;6155637;23;20008;-70
2023/04/20 07:31:29;;;;;;;5.45;3.83;;;13.10;95.50;;;;;;6154496;23;20017;-70
2023/04/20 07:33:55;;;;;;;7.05;4.43;;;13.20;95.60;;;;;;6155587;23;20085;-71
2023/04/20 07:36:21;;;;;;;5.25;4.63;;;13.10;95.70;;;;;;6154946;23;20329;-70
2023/04/20 07:38:48;;;;;;;5.93;4.70;;;13.10;95.90;;;;;;6155533;23;20068;-70
2023/04/20 07:41:14;;;;;;;6.93;4.20;;;13.00;96.10;;;;;;6155345;23;20008;-70
2023/04/20 07:43:40;;;;;;;5.72;4.50;;;13.00;96.10;;;;;;6155483;23;20301;-70
2023/04/20 07:46:06;;;;;;;5.72;5.10;;;13.00;96.10;;;;;;6154990;23;20053;-71
2023/04/20 07:48:33;;;;;;;6.00;4.95;;;13.00;96.30;;;;;;6154642;23;20309;-71
2023/04/20 07:50:59;;;;;;;5.88;5.00;;;12.90;96.30;;;;;;6155197;23;20037;-71
2023/04/20 07:53:26;;;;;;;5.68;5.07;;;12.90;96.50;;;;;;6155223;23;20100;-71
2023/04/20 07:55:53;;;;;;;5.63;4.80;;;12.90;96.60;;;;;;6155685;23;20528;-80
2023/04/20 07:58:20;;;;;;;6.00;4.80;;;12.90;96.80;;;;;;6154946;23;20076;-71
2023/04/20 08:00:46;;;;;;;6.13;4.80;;;12.80;96.90;;;;;;6155325;23;20060;-75
2023/04/20 08:03:13;;;;;;;6.57;5.15;;;12.90;96.70;;;;;;6154784;23;20071;-71
2023/04/20 08:05:39;;;;;;;7.85;5.30;;;12.90;96.90;;;;;;6154740;23;19998;-72
2023/04/20 08:08:06;;;;;;;6.93;5.40;;;12.90;96.90;;;;;;6155099;23;20432;-70
2023/04/20 08:10:31;;;;;;;5.68;4.90;;;12.90;96.90;;;;;;6155229;23;20029;-69
2023/04/20 08:12:58;;;;;;;7.13;5.18;;;12.90;96.80;;;;;;6155369;23;20328;-70
2023/04/20 08:15:23;;;;;;;6.13;4.93;;;12.90;96.70;;;;;;6155723;23;20320;-70
2023/04/20 08:17:49;;;;;;;5.63;4.55;;;12.90;96.90;;;;;;6155766;23;20012;-70
2023/04/20 08:20:15;;;;;;;5.88;5.28;;;13.00;96.90;;;;;;6155606;23;19994;-71
2023/04/20 08:22:41;;;;;;;7.85;5.10;;;13.00;97.00;;;;;;6154267;23;20077;-71
2023/04/20 08:25:07;;;;;;;6.85;5.25;;;13.00;96.80;;;;;;6155446;23;20009;-71
2023/04/20 08:27:33;;;;;;;8.52;5.55;;;13.00;96.80;;;;;;6155357;23;20028;-70
2023/04/20 08:29:59;;;;;;;7.28;5.25;;;13.10;96.90;;;;;;6155247;23;20440;-69
2023/04/20 08:32:25;;;;;;;6.50;5.50;;;13.10;97.20;;;;;;6155404;23;20464;-72
2023/04/20 08:34:52;;;;;;;8.50;5.32;;;13.10;97.40;;;;;;6155704;23;20314;-70
2023/04/20 08:37:18;;;;;;;7.75;5.10;;;13.10;97.20;;;;;;6155157;23;20381;-71
2023/04/20 08:39:44;;;;;;;8.18;4.75;;;13.20;97.30;;;;;;6155535;23;19997;-70
2023/04/20 08:42:10;;;;;;;6.38;4.78;;;13.30;97.00;;;;;;6155491;23;20428;-70
2023/04/20 08:44:36;;;;;;;5.82;4.72;;;13.40;97.10;;;;;;6155701;23;20029;-70
2023/04/20 08:47:02;;;;;;;8.50;4.45;;;13.50;97.20;;;;;;6155581;23;20017;-70
2023/04/20 08:49:30;;;;;;;4.30;3.85;;;13.70;97.10;;;;;;6155808;23;20002;-70
2023/04/20 08:51:56;;;;;;;6.72;4.03;;;13.80;96.20;;;;;;6154966;23;20021;-70
2023/04/20 08:54:21;;;;;;;6.32;3.58;;;13.80;95.90;;;;;;6155598;23;20016;-71
2023/04/20 08:56:47;;;;;;;7.43;3.80;;;13.90;95.80;;;;;;6155412;23;20376;-71
2023/04/20 08:59:15;;;;;;;5.45;3.75;;;14.00;95.40;;;;;;6155242;23;20332;-70
2023/04/20 09:01:41;;;;;;;4.60;4.07;;;14.00;95.30;;;;;;6155281;23;20009;-71
2023/04/20 09:04:25;;;;;;;5.68;3.65;;;14.10;94.90;;;;;;6154931;23;20051;-72
2023/04/20 09:06:53;;;;;;;5.07;3.97;;;14.10;94.60;;;;;;6154995;23;20006;-71
2023/04/20 09:09:20;;;;;;;5.72;3.75;;;14.10;94.50;;;;;;6155148;23;20008;-71
2023/04/20 09:11:47;;;;;;;5.97;4.13;;;14.10;94.20;;;;;;6155239;23;20021;-71
2023/04/20 09:14:17;;;;;;;5.55;4.30;;;14.10;93.80;;;;;;6155155;23;19993;-71
2023/04/20 09:17:01;;;;;;;5.00;3.83;;;14.10;93.80;;;;;;6155215;23;20056;-71
2023/04/20 09:19:30;;;;;;;4.13;3.45;;;14.20;94.00;;;;;;6155189;23;20020;-71
2023/04/20 09:21:58;;;;;;;4.80;3.65;;;14.20;93.90;;;;;;6154746;23;20451;-71
2023/04/20 09:24:35;;;;;;;5.03;4.10;;;14.20;93.80;;;;;;6154595;23;20077;-70
2023/04/20 09:27:13;;;;;;;7.07;4.07;;;14.20;93.20;;;;;;6155341;23;20440;-70
2023/04/20 09:29:39;;;;;;;4.78;4.15;;;14.30;92.30;;;;;;6154979;23;20001;-72
2023/04/20 09:32:05;;;;;;;4.78;4.25;;;14.30;92.10;;;;;;6155084;23;20017;-71
2023/04/20 09:34:42;;;;;;;5.45;4.05;;;14.30;92.20;;;;;;6128780;23;20006;-70
2023/04/20 09:37:09;;;;;;;7.35;4.50;;;14.30;92.10;;;;;;6154301;23;20006;-70
2023/04/20 09:39:40;;;;;;;5.60;4.05;;;14.30;92.10;;;;;;6154936;23;19998;-70
2023/04/20 09:42:14;;;;;;;5.13;4.38;;;14.20;92.30;;;;;;6155104;23;20404;-70
2023/04/20 09:44:40;;;;;;;6.88;4.50;;;14.20;92.40;;;;;;6155036;23;20425;-70
2023/04/20 09:47:07;;;;;;;8.88;5.97;;;14.20;92.70;;;;;;6154558;23;20002;-70
2023/04/20 09:49:33;;;;;;;13.57;6.57;;;14.20;92.50;;;;;;6154285;23;19998;-71
2023/04/20 09:52:04;;;;;;;10.18;6.25;;;14.10;91.20;;;;;;6154240;23;20037;-71
2023/04/20 09:54:30;;;;;;;8.80;5.00;;;14.10;91.00;;;;;;6154956;23;20076;-70
2023/04/20 09:56:58;;;;;;;8.90;5.38;;;14.10;90.60;;;;;;6156956;23;20029;-70
2023/04/20 09:59:26;;;;;;;7.40;4.10;;;14.10;90.70;;;;;;6156622;23;20002;-70
2023/04/20 10:01:52;;;;;;;9.20;4.85;;;14.10;90.50;;;;;;6157367;23;20301;-71
2023/04/20 10:04:18;;;;;;;12.45;4.60;;;14.10;90.70;;;;;;6156891;23;20001;-70
2023/04/20 10:06:56;;;;;;;11.27;4.90;;;14.00;91.10;;;;;;6156665;23;20025;-70
2023/04/20 10:09:27;;;;;;;13.85;4.63;;;14.00;91.40;;;;;;6156496;23;20005;-70
2023/04/20 10:12:03;;;;;;;16.48;4.97;;;13.90;91.40;;;;;;6156363;23;20016;-70
2023/04/20 10:14:30;;;;;;;9.98;5.35;;;13.90;91.30;;;;;;6156464;23;20084;-70
2023/04/20 10:16:59;;;;;;;10.18;5.45;;;13.80;91.40;;;;;;6156869;23;20444;-70
2023/04/20 10:19:39;;;;;;;10.15;5.63;;;13.70;91.60;;;;;;6157163;23;20336;-70
2023/04/20 10:22:05;;;;;;;7.28;6.15;;;13.60;92.00;;;;;;6156823;23;20001;-70
2023/04/20 10:24:31;;;;;;;13.13;9.13;;;13.50;92.60;;;;;;6156621;23;20009;-70
2023/04/20 10:26:58;;;;;;;13.70;8.82;;;13.50;93.00;;;;;;6157098;23;20026;-69
2023/04/20 10:29:25;;;;;;;12.55;7.13;;;13.40;93.50;;;;;;6156801;23;20006;-69
2023/04/20 10:31:52;;;;;;;8.55;5.40;;;13.40;93.80;;;;;;6156875;23;20010;-69
2023/04/20 10:34:37;;;;;;;11.45;9.68;;;13.40;94.10;;;;;;6156766;23;19997;-70
2023/04/20 10:37:10;;;;;;;11.82;9.10;;;13.30;94.40;;;;;;6157295;23;20008;-70
2023/04/20 10:39:44;;;;;;;11.95;9.50;;;13.30;94.70;;;;;;6156597;23;20006;-69
2023/04/20 10:42:10;;;;;;;9.13;5.68;;;13.30;95.00;;;;;;6156668;23;20033;-70
2023/04/20 10:44:50;;;;;;;8.65;6.03;;;13.20;94.80;;;;;;6156807;23;20006;-69
2023/04/20 10:47:17;;;;;;;10.50;5.78;;;13.20;95.00;;;;;;6156736;23;20072;-71
2023/04/20 10:49:43;;;;;;;6.55;4.93;;;13.10;95.10;;;;;;6156872;23;20005;-70
2023/04/20 10:52:09;;;;;;;7.03;5.25;;;13.10;95.20;;;;;;6156297;23;20017;-70
2023/04/20 10:54:41;;;;;;;7.75;5.60;;;13.00;95.60;;;;;;6156543;23;20017;-70
2023/04/20 10:57:07;;;;;;;6.65;5.63;;;13.00;96.00;;;;;;6156502;23;20117;-70
2023/04/20 10:59:34;;;;;;;9.48;5.60;;;12.90;96.30;;;;;;6156495;23;20042;-70
2023/04/20 11:02:00;;;;;;;7.75;6.07;;;12.90;96.60;;;;;;6156543;23;20005;-70
2023/04/20 11:04:33;;;;;;;9.65;6.75;;;12.90;96.90;;;;;;6156657;23;20008;-70
2023/04/20 11:07:08;;;;;;;7.25;6.13;;;12.90;97.20;;;;;;6155938;23;20002;-70
2023/04/20 11:09:37;;;;;;;8.07;6.10;;;12.90;97.30;;;;;;6156763;23;19998;-69
2023/04/20 11:12:04;;;;;;;7.65;6.63;;;12.90;97.60;;;;;;6156708;23;20088;-69
2023/04/20 11:14:39;;;;;;;8.43;6.25;;;12.90;97.90;;;;;;6156552;23;20117;-70
2023/04/20 11:17:05;;;;;;;9.80;6.32;;;12.90;98.20;;;;;;6156788;23;20454;-69
2023/04/20 11:19:33;;;;;;;7.05;5.40;;;12.90;98.20;;;;;;6156201;23;20432;-71
2023/04/20 11:22:00;;;;;;;10.57;6.35;;;13.00;98.30;;;;;;6156392;23;20439;-70
2023/04/20 11:24:28;;;;;;;10.10;7.03;;;13.00;98.40;;;;;;6156287;23;19997;-71
2023/04/20 11:26:54;;;;;;;7.75;6.00;;;13.00;98.60;;;;;;6156793;23;20013;-71
2023/04/20 11:29:35;;;;;;;9.65;6.82;;;13.10;98.60;;;;;;6156482;23;20029;-72
2023/04/20 11:32:09;;;;;;;12.82;9.80;;;13.10;98.60;;;;;;6155784;23;20463;-70
2023/04/20 11:34:37;;;;;;;9.43;7.93;;;13.10;98.70;;;;;;6155975;23;20080;-70
2023/04/20 11:37:06;;;;;;;10.13;7.38;;;13.20;98.80;;;;;;6156402;23;20008;-70
2023/04/20 11:39:32;;;;;;;8.95;7.53;;;13.20;98.90;;;;;;6156144;23;20443;-70
2023/04/20 11:41:58;;;;;;;8.75;7.53;;;13.20;98.90;;;;;;6156243;23;20005;-70
2023/04/20 11:44:26;;;;;;;9.45;6.78;;;13.20;99.30;;;;;;6156608;23;20466;-70
2023/04/20 11:46:53;;;;;;;7.65;6.85;;;13.20;99.30;;;;;;6156124;23;20005;-70
2023/04/20 11:49:20;;;;;;;9.82;7.40;;;13.20;99.40;;;;;;6156142;23;20428;-70
2023/04/20 11:51:46;;;;;;;12.50;6.50;;;13.20;99.30;;;;;;6155264;23;20444;-69
2023/04/20 11:54:12;;;;;;;10.60;6.32;;;13.30;99.60;;;;;;6155429;23;19997;-69
2023/04/20 11:56:40;;;;;;;6.88;6.13;;;13.30;99.60;;;;;;6155705;23;20006;-70
2023/04/20 11:59:07;;;;;;;14.93;6.93;;;13.30;99.60;;;;;;6155690;23;20001;-70
2023/04/20 12:01:33;;;;;;;9.38;5.43;;;13.30;99.50;;;;;;6155937;23;20028;-70
2023/04/20 12:04:00;;;;;;;4.95;4.47;;;13.30;99.50;;;;;;6155585;23;20002;-70
2023/04/20 12:06:27;;;;;;;7.18;4.50;;;13.30;99.20;;;;;;6155783;23;20427;-70
2023/04/20 12:08:57;;;;;;;5.32;4.43;;;13.30;99.20;;;;;;6155803;23;20352;-70
2023/04/20 12:11:23;;;;;;;5.70;4.10;;;13.20;99.20;;;;;;6155433;23;20013;-70
2023/04/20 12:13:49;;;;;;;5.45;4.30;;;13.20;99.10;;;;;;6155509;23;20005;-70
2023/04/20 12:16:15;;;;;;;5.10;3.97;;;13.20;99.00;;;;;;6155429;23;20005;-70
2023/04/20 12:18:41;;;;;;;7.13;3.97;;;13.20;98.90;;;;;;6155227;23;19998;-70
2023/04/20 12:21:07;;;;;;;6.60;4.22;;;13.20;98.90;;;;;;6155684;23;20010;-70
2023/04/20 12:23:35;;;;;;;5.38;4.60;;;13.20;98.90;;;;;;6155786;23;19997;-71
2023/04/20 12:26:03;;;;;;;5.53;4.68;;;13.30;99.00;;;;;;6155353;23;20005;-71
2023/04/20 12:28:29;;;;;;;6.25;4.50;;;13.30;98.90;;;;;;6155541;23;19997;-70
2023/04/20 12:30:55;;;;;;;6.15;4.70;;;13.30;98.90;;;;;;6155901;23;20017;-70
2023/04/20 12:33:20;;;;;;;8.68;4.28;;;13.30;99.00;;;;;;6155725;23;20001;-69
2023/04/20 12:35:46;;;;;;;9.30;4.65;;;13.30;99.20;;;;;;6155739;23;20124;-70
2023/04/20 12:38:12;;;;;;;4.85;3.75;;;13.40;99.20;;;;;;6155831;23;20048;-70
2023/04/20 12:40:38;;;;;;;7.00;4.63;;;13.40;99.20;;;;;;6155818;23;20340;-70
2023/04/20 12:43:03;;;;;;;6.22;4.95;;;13.40;99.40;;;;;;6155556;23;20013;-70